sensor_id;sensor_type;location;lat;lon;timestamp;pressure;altitude;pressure_sealevel;temperature;humidity
75460;BME280;64039;53.060;9.342;2022-12-18T00:03:47;102635.69;;;-8.64;100.00
75460;BME280;64039;53.060;9.342;2022-12-18T00:06:14;102634.53;;;-8.54;100.00
75460;BME280;64039;53.060;9.342;2022-12-18T00:08:41;102632.78;;;-8.67;100.00
75460;BME280;64039;53.060;9.342;2022-12-18T00:11:08;102635.84;;;-8.70;100.00
75460;BME280;64039;53.060;9.342;2022-12-18T00:13:34;102640.34;;;-8.88;100.00
75460;BME280;64039;53.060;9.342;2022-12-18T00:16:05;102643.38;;;-8.90;100.00
75460;BME280;64039;53.060;9.342;2022-12-18T00:18:31;102641.69;;;-8.97;100.00
75460;BME280;64039;53.060;9.342;2022-12-18T00:21:01;102641.44;;;-8.86;100.00
75460;BME280;64039;53.060;9.342;2022-12-18T00:23:28;102643.22;;;-8.85;100.00
75460;BME280;64039;53.060;9.342;2022-12-18T00:25:54;102647.75;;;-8.69;100.00
75460;BME280;64039;53.060;9.342;2022-12-18T00:28:20;102647.47;;;-8.78;100.00
75460;BME280;64039;53.060;9.342;2022-12-18T00:30:45;102648.44;;;-8.70;100.00
75460;BME280;64039;53.060;9.342;2022-12-18T00:33:11;102651.75;;;-8.64;100.00
75460;BME280;64039;53.060;9.342;2022-12-18T00:35:36;102646.50;;;-8.65;100.00
75460;BME280;64039;53.060;9.342;2022-12-18T00:38:02;102643.34;;;-8.57;100.00
75460;BME280;64039;53.060;9.342;2022-12-18T00:40:27;102648.59;;;-8.56;100.00
75460;BME280;64039;53.060;9.342;2022-12-18T00:42:53;102643.84;;;-8.60;100.00
75460;BME280;64039;53.060;9.342;2022-12-18T00:45:29;102653.94;;;-8.60;100.00
75460;BME280;64039;53.060;9.342;2022-12-18T00:47:55;102656.16;;;-8.56;100.00
75460;BME280;64039;53.060;9.342;2022-12-18T00:50:22;102655.31;;;-8.69;100.00
75460;BME280;64039;53.060;9.342;2022-12-18T00:52:48;102644.94;;;-8.78;100.00
75460;BME280;64039;53.060;9.342;2022-12-18T00:55:14;102637.44;;;-8.71;100.00
75460;BME280;64039;53.060;9.342;2022-12-18T00:57:39;102644.75;;;-8.59;100.00
75460;BME280;64039;53.060;9.342;2022-12-18T01:00:07;102636.91;;;-8.68;100.00
75460;BME280;64039;53.060;9.342;2022-12-18T01:02:34;102644.19;;;-8.64;100.00
75460;BME280;64039;53.060;9.342;2022-12-18T01:04:59;102647.28;;;-8.79;100.00
75460;BME280;64039;53.060;9.342;2022-12-18T01:07:24;102649.16;;;-9.04;100.00
75460;BME280;64039;53.060;9.342;2022-12-18T01:09:50;102647.28;;;-9.12;100.00
75460;BME280;64039;53.060;9.342;2022-12-18T01:12:15;102651.97;;;-9.08;100.00
75460;BME280;64039;53.060;9.342;2022-12-18T01:14:41;102652.47;;;-8.98;100.00
75460;BME280;64039;53.060;9.342;2022-12-18T01:17:06;102645.94;;;-9.03;100.00
75460;BME280;64039;53.060;9.342;2022-12-18T01:19:32;102649.44;;;-8.95;100.00
75460;BME280;64039;53.060;9.342;2022-12-18T01:21:58;102651.13;;;-8.89;100.00
75460;BME280;64039;53.060;9.342;2022-12-18T01:24:23;102655.59;;;-8.93;100.00
75460;BME280;64039;53.060;9.342;2022-12-18T01:26:49;102666.19;;;-8.96;100.00
75460;BME280;64039;53.060;9.342;2022-12-18T01:29:14;102669.34;;;-9.04;100.00
75460;BME280;64039;53.060;9.342;2022-12-18T01:31:40;102668.03;;;-8.95;100.00
75460;BME280;64039;53.060;9.342;2022-12-18T01:34:05;102664.97;;;-8.92;100.00
75460;BME280;64039;53.060;9.342;2022-12-18T01:36:36;102673.25;;;-8.93;100.00
75460;BME280;64039;53.060;9.342;2022-12-18T01:39:05;102672.28;;;-8.81;100.00
75460;BME280;64039;53.060;9.342;2022-12-18T01:41:33;102672.00;;;-8.77;100.00
75460;BME280;64039;53.060;9.342;2022-12-18T01:49:52;102671.22;;;-8.83;100.00
75460;BME280;64039;53.060;9.342;2022-12-18T01:52:20;102677.06;;;-8.90;100.00
75460;BME280;64039;53.060;9.342;2022-12-18T01:54:47;102669.13;;;-8.73;100.00
75460;BME280;64039;53.060;9.342;2022-12-18T01:57:14;102679.75;;;-8.75;100.00
75460;BME280;64039;53.060;9.342;2022-12-18T01:59:41;102680.47;;;-8.76;100.00
75460;BME280;64039;53.060;9.342;2022-12-18T02:02:08;102687.16;;;-8.90;100.00
75460;BME280;64039;53.060;9.342;2022-12-18T02:04:33;102690.16;;;-9.12;100.00
75460;BME280;64039;53.060;9.342;2022-12-18T02:10:27;102680.84;;;-9.06;100.00
75460;BME280;64039;53.060;9.342;2022-12-18T02:13:03;102674.09;;;-9.13;100.00
75460;BME280;64039;53.060;9.342;2022-12-18T02:18:10;102676.59;;;-9.00;100.00
75460;BME280;64039;53.060;9.342;2022-12-18T02:26:14;102671.72;;;-9.44;100.00
75460;BME280;64039;53.060;9.342;2022-12-18T02:28:51;102661.75;;;-9.50;100.00
75460;BME280;64039;53.060;9.342;2022-12-18T02:31:24;102663.66;;;-9.29;100.00
75460;BME280;64039;53.060;9.342;2022-12-18T02:33:53;102664.25;;;-9.24;100.00
75460;BME280;64039;53.060;9.342;2022-12-18T02:36:21;102672.28;;;-9.14;100.00
75460;BME280;64039;53.060;9.342;2022-12-18T02:38:50;102670.06;;;-9.18;100.00
75460;BME280;64039;53.060;9.342;2022-12-18T02:41:17;102670.88;;;-9.25;100.00
75460;BME280;64039;53.060;9.342;2022-12-18T02:43:53;102674.09;;;-9.26;100.00
75460;BME280;64039;53.060;9.342;2022-12-18T02:46:27;102669.16;;;-9.19;100.00
75460;BME280;64039;53.060;9.342;2022-12-18T02:49:01;102671.00;;;-9.30;100.00
75460;BME280;64039;53.060;9.342;2022-12-18T02:51:45;102663.34;;;-9.38;100.00
75460;BME280;64039;53.060;9.342;2022-12-18T02:54:23;102657.59;;;-9.37;100.00
75460;BME280;64039;53.060;9.342;2022-12-18T02:56:55;102663.84;;;-9.27;100.00
75460;BME280;64039;53.060;9.342;2022-12-18T02:59:29;102665.66;;;-9.26;100.00
75460;BME280;64039;53.060;9.342;2022-12-18T03:02:04;102672.69;;;-9.24;100.00
75460;BME280;64039;53.060;9.342;2022-12-18T03:07:41;102669.97;;;-9.12;100.00
75460;BME280;64039;53.060;9.342;2022-12-18T03:10:12;102668.13;;;-9.01;100.00
75460;BME280;64039;53.060;9.342;2022-12-18T03:12:43;102678.50;;;-8.92;100.00
75460;BME280;64039;53.060;9.342;2022-12-18T03:18:32;102669.94;;;-8.99;100.00
75460;BME280;64039;53.060;9.342;2022-12-18T03:20:32;102679.22;;;-9.06;100.00
75460;BME280;64039;53.060;9.342;2022-12-18T03:23:04;102682.06;;;-9.10;100.00
75460;BME280;64039;53.060;9.342;2022-12-18T03:25:36;102683.78;;;-9.03;100.00
75460;BME280;64039;53.060;9.342;2022-12-18T03:28:08;102690.44;;;-9.04;100.00
75460;BME280;64039;53.060;9.342;2022-12-18T03:30:37;102689.72;;;-9.03;100.00
75460;BME280;64039;53.060;9.342;2022-12-18T03:33:46;102693.13;;;-9.02;100.00
75460;BME280;64039;53.060;9.342;2022-12-18T03:36:04;102690.72;;;-8.95;100.00
75460;BME280;64039;53.060;9.342;2022-12-18T03:38:30;102680.72;;;-8.88;100.00
75460;BME280;64039;53.060;9.342;2022-12-18T03:46:17;102681.44;;;-9.02;100.00
75460;BME280;64039;53.060;9.342;2022-12-18T03:48:52;102684.41;;;-9.11;100.00
75460;BME280;64039;53.060;9.342;2022-12-18T03:54:06;102681.19;;;-9.23;100.00
75460;BME280;64039;53.060;9.342;2022-12-18T03:56:39;102684.81;;;-9.34;100.00
75460;BME280;64039;53.060;9.342;2022-12-18T03:59:07;102678.44;;;-9.25;100.00
75460;BME280;64039;53.060;9.342;2022-12-18T04:01:38;102686.03;;;-9.38;100.00
75460;BME280;64039;53.060;9.342;2022-12-18T04:04:05;102681.81;;;-9.44;100.00
75460;BME280;64039;53.060;9.342;2022-12-18T04:06:32;102677.94;;;-9.35;100.00
75460;BME280;64039;53.060;9.342;2022-12-18T04:09:00;102674.09;;;-9.26;100.00
75460;BME280;64039;53.060;9.342;2022-12-18T04:11:26;102675.13;;;-9.31;100.00
75460;BME280;64039;53.060;9.342;2022-12-18T04:13:56;102675.03;;;-9.38;100.00
75460;BME280;64039;53.060;9.342;2022-12-18T04:16:23;102673.13;;;-9.34;100.00
75460;BME280;64039;53.060;9.342;2022-12-18T04:18:48;102675.13;;;-9.18;100.00
75460;BME280;64039;53.060;9.342;2022-12-18T04:21:14;102668.19;;;-9.26;100.00
75460;BME280;64039;53.060;9.342;2022-12-18T04:23:39;102668.09;;;-9.34;100.00
75460;BME280;64039;53.060;9.342;2022-12-18T04:26:05;102664.56;;;-9.41;100.00
75460;BME280;64039;53.060;9.342;2022-12-18T04:28:30;102659.50;;;-9.41;100.00
75460;BME280;64039;53.060;9.342;2022-12-18T04:30:56;102664.56;;;-9.54;100.00
75460;BME280;64039;53.060;9.342;2022-12-18T04:33:21;102662.53;;;-9.57;100.00
75460;BME280;64039;53.060;9.342;2022-12-18T04:35:47;102664.78;;;-9.66;100.00
75460;BME280;64039;53.060;9.342;2022-12-18T04:38:12;102665.16;;;-9.63;100.00
75460;BME280;64039;53.060;9.342;2022-12-18T04:40:38;102664.88;;;-9.45;100.00
75460;BME280;64039;53.060;9.342;2022-12-18T04:43:04;102663.16;;;-9.39;100.00
75460;BME280;64039;53.060;9.342;2022-12-18T04:45:31;102673.41;;;-9.38;100.00
75460;BME280;64039;53.060;9.342;2022-12-18T04:48:00;102675.03;;;-9.38;100.00
75460;BME280;64039;53.060;9.342;2022-12-18T04:50:26;102670.72;;;-9.39;100.00
75460;BME280;64039;53.060;9.342;2022-12-18T04:52:52;102673.13;;;-9.34;100.00
75460;BME280;64039;53.060;9.342;2022-12-18T04:55:18;102674.22;;;-9.32;100.00
75460;BME280;64039;53.060;9.342;2022-12-18T04:57:44;102667.16;;;-9.34;100.00
75460;BME280;64039;53.060;9.342;2022-12-18T05:00:10;102674.34;;;-9.24;100.00
75460;BME280;64039;53.060;9.342;2022-12-18T05:02:35;102683.59;;;-9.18;100.00
75460;BME280;64039;53.060;9.342;2022-12-18T05:05:01;102686.63;;;-9.33;100.00
75460;BME280;64039;53.060;9.342;2022-12-18T05:07:26;102681.69;;;-9.39;100.00
75460;BME280;64039;53.060;9.342;2022-12-18T05:09:52;102677.34;;;-9.40;100.00
75460;BME280;64039;53.060;9.342;2022-12-18T05:12:17;102688.16;;;-9.41;100.00
75460;BME280;64039;53.060;9.342;2022-12-18T05:14:43;102691.16;;;-9.30;100.00
75460;BME280;64039;53.060;9.342;2022-12-18T05:17:08;102685.94;;;-9.32;100.00
75460;BME280;64039;53.060;9.342;2022-12-18T05:19:33;102691.56;;;-9.27;100.00
75460;BME280;64039;53.060;9.342;2022-12-18T05:21:59;102702.34;;;-9.16;100.00
75460;BME280;64039;53.060;9.342;2022-12-18T05:24:24;102711.84;;;-9.46;100.00
75460;BME280;64039;53.060;9.342;2022-12-18T05:26:50;102712.34;;;-9.49;100.00
75460;BME280;64039;53.060;9.342;2022-12-18T05:29:15;102718.00;;;-9.44;100.00
75460;BME280;64039;53.060;9.342;2022-12-18T05:31:41;102719.50;;;-9.39;100.00
75460;BME280;64039;53.060;9.342;2022-12-18T05:34:07;102718.63;;;-9.39;100.00
75460;BME280;64039;53.060;9.342;2022-12-18T05:36:32;102720.63;;;-9.50;100.00
75460;BME280;64039;53.060;9.342;2022-12-18T05:38:58;102717.81;;;-9.45;100.00
75460;BME280;64039;53.060;9.342;2022-12-18T05:41:25;102714.97;;;-9.41;100.00
75460;BME280;64039;53.060;9.342;2022-12-18T05:43:50;102723.34;;;-9.48;100.00
75460;BME280;64039;53.060;9.342;2022-12-18T05:46:17;102723.34;;;-9.48;100.00
75460;BME280;64039;53.060;9.342;2022-12-18T05:48:44;102729.72;;;-9.44;100.00
75460;BME280;64039;53.060;9.342;2022-12-18T05:51:12;102723.16;;;-9.50;100.00
75460;BME280;64039;53.060;9.342;2022-12-18T05:53:40;102718.81;;;-9.38;100.00
75460;BME280;64039;53.060;9.342;2022-12-18T05:56:08;102720.34;;;-9.45;100.00
75460;BME280;64039;53.060;9.342;2022-12-18T05:58:34;102723.56;;;-9.46;100.00
75460;BME280;64039;53.060;9.342;2022-12-18T06:01:07;102725.66;;;-9.50;100.00
75460;BME280;64039;53.060;9.342;2022-12-18T06:03:33;102729.22;;;-9.55;100.00
75460;BME280;64039;53.060;9.342;2022-12-18T06:05:58;102730.00;;;-9.61;100.00
75460;BME280;64039;53.060;9.342;2022-12-18T06:08:24;102721.56;;;-9.49;100.00
75460;BME280;64039;53.060;9.342;2022-12-18T06:10:50;102716.69;;;-9.48;100.00
75460;BME280;64039;53.060;9.342;2022-12-18T06:13:17;102714.88;;;-9.49;100.00
75460;BME280;64039;53.060;9.342;2022-12-18T06:15:42;102720.72;;;-9.55;100.00
75460;BME280;64039;53.060;9.342;2022-12-18T06:18:08;102730.69;;;-9.63;100.00
75460;BME280;64039;53.060;9.342;2022-12-18T06:20:33;102725.38;;;-9.58;100.00
75460;BME280;64039;53.060;9.342;2022-12-18T06:23:01;102719.63;;;-9.57;100.00
75460;BME280;64039;53.060;9.342;2022-12-18T06:25:27;102725.75;;;-9.68;100.00
75460;BME280;64039;53.060;9.342;2022-12-18T06:27:52;102712.16;;;-9.63;100.00
75460;BME280;64039;53.060;9.342;2022-12-18T06:30:18;102722.25;;;-9.63;100.00
75460;BME280;64039;53.060;9.342;2022-12-18T06:32:44;102731.31;;;-9.58;100.00
75460;BME280;64039;53.060;9.342;2022-12-18T06:35:10;102727.47;;;-9.49;100.00
75460;BME280;64039;53.060;9.342;2022-12-18T06:37:35;102732.94;;;-9.45;100.00
75460;BME280;64039;53.060;9.342;2022-12-18T06:40:01;102735.75;;;-9.50;100.00
75460;BME280;64039;53.060;9.342;2022-12-18T06:42:28;102741.13;;;-9.41;100.00
75460;BME280;64039;53.060;9.342;2022-12-18T06:44:53;102739.91;;;-9.37;100.00
75460;BME280;64039;53.060;9.342;2022-12-18T06:47:19;102736.47;;;-9.25;100.00
75460;BME280;64039;53.060;9.342;2022-12-18T06:49:44;102735.34;;;-9.27;100.00
75460;BME280;64039;53.060;9.342;2022-12-18T06:55:01;102746.66;;;-9.18;100.00
75460;BME280;64039;53.060;9.342;2022-12-18T06:57:27;102737.16;;;-9.00;100.00
75460;BME280;64039;53.060;9.342;2022-12-18T06:59:52;102746.03;;;-9.09;100.00
75460;BME280;64039;53.060;9.342;2022-12-18T07:02:17;102748.97;;;-9.06;100.00
75460;BME280;64039;53.060;9.342;2022-12-18T07:04:43;102747.31;;;-8.93;100.00
75460;BME280;64039;53.060;9.342;2022-12-18T07:07:08;102746.03;;;-8.96;100.00
75460;BME280;64039;53.060;9.342;2022-12-18T07:09:34;102744.00;;;-8.99;100.00
75460;BME280;64039;53.060;9.342;2022-12-18T07:11:59;102750.88;;;-8.98;100.00
75460;BME280;64039;53.060;9.342;2022-12-18T07:14:25;102752.38;;;-8.93;100.00
75460;BME280;64039;53.060;9.342;2022-12-18T07:16:50;102753.41;;;-8.98;100.00
75460;BME280;64039;53.060;9.342;2022-12-18T07:19:16;102770.97;;;-9.05;100.00
75460;BME280;64039;53.060;9.342;2022-12-18T07:21:41;102770.56;;;-8.95;100.00
75460;BME280;64039;53.060;9.342;2022-12-18T07:24:07;102773.88;;;-8.89;100.00
75460;BME280;64039;53.060;9.342;2022-12-18T07:26:32;102776.72;;;-8.93;100.00
75460;BME280;64039;53.060;9.342;2022-12-18T07:28:58;102782.88;;;-9.04;100.00
75460;BME280;64039;53.060;9.342;2022-12-18T07:31:24;102782.38;;;-9.02;100.00
75460;BME280;64039;53.060;9.342;2022-12-18T07:33:50;102785.00;;;-8.94;100.00
75460;BME280;64039;53.060;9.342;2022-12-18T07:36:16;102784.56;;;-8.97;100.00
75460;BME280;64039;53.060;9.342;2022-12-18T07:38:42;102782.03;;;-8.85;100.00
75460;BME280;64039;53.060;9.342;2022-12-18T07:41:12;102784.19;;;-8.88;100.00
75460;BME280;64039;53.060;9.342;2022-12-18T07:43:39;102772.09;;;-8.90;100.00
75460;BME280;64039;53.060;9.342;2022-12-18T07:46:05;102779.31;;;-8.86;100.00
75460;BME280;64039;53.060;9.342;2022-12-18T07:48:31;102778.31;;;-8.94;100.00
75460;BME280;64039;53.060;9.342;2022-12-18T07:51:05;102771.66;;;-8.80;100.00
75460;BME280;64039;53.060;9.342;2022-12-18T07:53:32;102767.13;;;-8.83;100.00
75460;BME280;64039;53.060;9.342;2022-12-18T07:55:59;102764.28;;;-8.79;100.00
75460;BME280;64039;53.060;9.342;2022-12-18T07:58:25;102770.53;;;-8.70;100.00
75460;BME280;64039;53.060;9.342;2022-12-18T08:00:51;102764.88;;;-8.74;100.00
75460;BME280;64039;53.060;9.342;2022-12-18T08:03:18;102758.94;;;-8.75;100.00
75460;BME280;64039;53.060;9.342;2022-12-18T08:05:43;102748.41;;;-8.65;100.00
75460;BME280;64039;53.060;9.342;2022-12-18T08:08:10;102748.13;;;-8.74;100.00
75460;BME280;64039;53.060;9.342;2022-12-18T08:10:35;102751.63;;;-8.66;100.00
75460;BME280;64039;53.060;9.342;2022-12-18T08:13:00;102749.72;;;-8.74;100.00
75460;BME280;64039;53.060;9.342;2022-12-18T08:15:26;102746.50;;;-8.73;100.00
75460;BME280;64039;53.060;9.342;2022-12-18T08:17:51;102739.00;;;-8.66;100.00
75460;BME280;64039;53.060;9.342;2022-12-18T08:20:17;102740.59;;;-8.54;100.00
75460;BME280;64039;53.060;9.342;2022-12-18T08:22:43;102740.78;;;-8.52;100.00
75460;BME280;64039;53.060;9.342;2022-12-18T08:25:09;102729.91;;;-8.58;100.00
75460;BME280;64039;53.060;9.342;2022-12-18T08:27:35;102725.47;;;-8.46;100.00
75460;BME280;64039;53.060;9.342;2022-12-18T08:30:01;102727.44;;;-8.51;100.00
75460;BME280;64039;53.060;9.342;2022-12-18T08:32:27;102732.69;;;-8.29;100.00
75460;BME280;64039;53.060;9.342;2022-12-18T08:34:53;102729.84;;;-8.25;100.00
75460;BME280;64039;53.060;9.342;2022-12-18T08:37:18;102734.91;;;-8.25;100.00
75460;BME280;64039;53.060;9.342;2022-12-18T08:39:44;102738.38;;;-8.17;100.00
75460;BME280;64039;53.060;9.342;2022-12-18T08:42:10;102737.22;;;-8.27;100.00
75460;BME280;64039;53.060;9.342;2022-12-18T08:44:54;102740.97;;;-8.30;100.00
75460;BME280;64039;53.060;9.342;2022-12-18T08:47:20;102744.00;;;-8.33;100.00
75460;BME280;64039;53.060;9.342;2022-12-18T08:49:46;102747.31;;;-8.27;100.00
75460;BME280;64039;53.060;9.342;2022-12-18T08:52:11;102745.59;;;-8.21;100.00
75460;BME280;64039;53.060;9.342;2022-12-18T08:54:37;102748.72;;;-7.96;100.00
75460;BME280;64039;53.060;9.342;2022-12-18T08:57:02;102744.34;;;-7.77;100.00
75460;BME280;64039;53.060;9.342;2022-12-18T08:59:28;102746.22;;;-7.68;100.00
75460;BME280;64039;53.060;9.342;2022-12-18T09:01:53;102753.44;;;-7.44;100.00
75460;BME280;64039;53.060;9.342;2022-12-18T09:04:19;102743.38;;;-7.37;100.00
75460;BME280;64039;53.060;9.342;2022-12-18T09:06:44;102748.50;;;-7.22;100.00
75460;BME280;64039;53.060;9.342;2022-12-18T09:09:10;102742.63;;;-7.08;100.00
75460;BME280;64039;53.060;9.342;2022-12-18T09:11:36;102738.91;;;-6.90;100.00
75460;BME280;64039;53.060;9.342;2022-12-18T09:14:02;102744.50;;;-6.93;100.00
75460;BME280;64039;53.060;9.342;2022-12-18T09:16:29;102734.22;;;-6.87;100.00
75460;BME280;64039;53.060;9.342;2022-12-18T09:18:55;102738.63;;;-6.72;100.00
75460;BME280;64039;53.060;9.342;2022-12-18T09:21:25;102748.44;;;-6.60;100.00
75460;BME280;64039;53.060;9.342;2022-12-18T09:23:53;102746.97;;;-6.58;100.00
75460;BME280;64039;53.060;9.342;2022-12-18T09:26:19;102736.50;;;-6.47;100.00
75460;BME280;64039;53.060;9.342;2022-12-18T09:28:45;102731.63;;;-6.45;100.00
75460;BME280;64039;53.060;9.342;2022-12-18T09:31:12;102732.19;;;-6.41;100.00
75460;BME280;64039;53.060;9.342;2022-12-18T09:33:38;102724.59;;;-6.34;100.00
75460;BME280;64039;53.060;9.342;2022-12-18T09:36:06;102723.53;;;-6.14;100.00
75460;BME280;64039;53.060;9.342;2022-12-18T09:38:32;102719.56;;;-6.19;100.00
75460;BME280;64039;53.060;9.342;2022-12-18T09:41:03;102718.81;;;-5.96;100.00
75460;BME280;64039;53.060;9.342;2022-12-18T09:43:47;102730.94;;;-5.87;100.00
75460;BME280;64039;53.060;9.342;2022-12-18T09:46:33;102734.22;;;-5.88;100.00
75460;BME280;64039;53.060;9.342;2022-12-18T09:49:04;102735.81;;;-5.74;100.00
75460;BME280;64039;53.060;9.342;2022-12-18T09:54:33;102747.63;;;-5.74;100.00
75460;BME280;64039;53.060;9.342;2022-12-18T09:57:01;102751.78;;;-5.68;100.00
75460;BME280;64039;53.060;9.342;2022-12-18T09:59:32;102750.31;;;-5.65;100.00
75460;BME280;64039;53.060;9.342;2022-12-18T10:01:59;102766.44;;;-5.58;100.00
75460;BME280;64039;53.060;9.342;2022-12-18T10:04:26;102763.34;;;-5.48;100.00
75460;BME280;64039;53.060;9.342;2022-12-18T10:07:13;102764.59;;;-5.37;100.00
75460;BME280;64039;53.060;9.342;2022-12-18T10:10:11;102758.25;;;-5.26;100.00
75460;BME280;64039;53.060;9.342;2022-12-18T10:15:24;102756.59;;;-5.18;100.00
75460;BME280;64039;53.060;9.342;2022-12-18T10:17:59;102759.13;;;-5.18;100.00
75460;BME280;64039;53.060;9.342;2022-12-18T10:20:43;102755.28;;;-5.08;100.00
75460;BME280;64039;53.060;9.342;2022-12-18T10:23:19;102756.94;;;-5.08;100.00
75460;BME280;64039;53.060;9.342;2022-12-18T10:26:02;102759.22;;;-4.88;100.00
75460;BME280;64039;53.060;9.342;2022-12-18T10:28:30;102749.03;;;-4.81;100.00
75460;BME280;64039;53.060;9.342;2022-12-18T10:30:58;102754.28;;;-4.72;100.00
75460;BME280;64039;53.060;9.342;2022-12-18T10:33:27;102738.47;;;-4.69;100.00
75460;BME280;64039;53.060;9.342;2022-12-18T10:35:54;102742.47;;;-4.71;100.00
75460;BME280;64039;53.060;9.342;2022-12-18T10:38:28;102727.75;;;-4.67;100.00
75460;BME280;64039;53.060;9.342;2022-12-18T10:41:27;102728.75;;;-4.50;100.00
75460;BME280;64039;53.060;9.342;2022-12-18T10:46:35;102731.84;;;-4.53;100.00
75460;BME280;64039;53.060;9.342;2022-12-18T10:49:01;102733.91;;;-4.34;100.00
75460;BME280;64039;53.060;9.342;2022-12-18T10:51:30;102721.50;;;-4.24;100.00
75460;BME280;64039;53.060;9.342;2022-12-18T10:54:04;102716.66;;;-4.30;100.00
75460;BME280;64039;53.060;9.342;2022-12-18T10:56:35;102708.19;;;-4.45;100.00
75460;BME280;64039;53.060;9.342;2022-12-18T10:59:07;102708.16;;;-4.37;100.00
75460;BME280;64039;53.060;9.342;2022-12-18T11:01:54;102716.97;;;-4.27;100.00
75460;BME280;64039;53.060;9.342;2022-12-18T11:04:31;102717.19;;;-4.32;100.00
75460;BME280;64039;53.060;9.342;2022-12-18T11:09:30;102718.00;;;-4.17;100.00
75460;BME280;64039;53.060;9.342;2022-12-18T11:11:59;102724.72;;;-4.18;100.00
75460;BME280;64039;53.060;9.342;2022-12-18T11:14:33;102712.69;;;-4.12;100.00
75460;BME280;64039;53.060;9.342;2022-12-18T11:17:00;102698.09;;;-4.05;100.00
75460;BME280;64039;53.060;9.342;2022-12-18T11:19:34;102686.97;;;-3.99;100.00
75460;BME280;64039;53.060;9.342;2022-12-18T11:22:17;102684.72;;;-3.88;100.00
75460;BME280;64039;53.060;9.342;2022-12-18T11:24:53;102691.31;;;-3.74;100.00
75460;BME280;64039;53.060;9.342;2022-12-18T11:27:20;102685.41;;;-3.66;100.00
75460;BME280;64039;53.060;9.342;2022-12-18T11:29:49;102678.78;;;-3.57;100.00
75460;BME280;64039;53.060;9.342;2022-12-18T11:32:31;102671.75;;;-3.67;100.00
75460;BME280;64039;53.060;9.342;2022-12-18T11:38:37;102657.81;;;-3.70;100.00
75460;BME280;64039;53.060;9.342;2022-12-18T11:43:40;102663.47;;;-3.73;100.00
75460;BME280;64039;53.060;9.342;2022-12-18T11:46:13;102663.75;;;-3.63;100.00
75460;BME280;64039;53.060;9.342;2022-12-18T11:48:48;102658.06;;;-3.60;100.00
75460;BME280;64039;53.060;9.342;2022-12-18T11:51:28;102658.66;;;-3.47;100.00
75460;BME280;64039;53.060;9.342;2022-12-18T11:53:55;102657.09;;;-3.37;100.00
75460;BME280;64039;53.060;9.342;2022-12-18T11:56:35;102647.25;;;-3.34;100.00
75460;BME280;64039;53.060;9.342;2022-12-18T12:02:17;102634.91;;;-3.22;100.00
75460;BME280;64039;53.060;9.342;2022-12-18T12:05:00;102625.44;;;-3.07;100.00
75460;BME280;64039;53.060;9.342;2022-12-18T12:07:43;102615.53;;;-2.88;100.00
75460;BME280;64039;53.060;9.342;2022-12-18T12:26:38;102589.41;;;-2.36;100.00
75460;BME280;64039;53.060;9.342;2022-12-18T12:40:06;102590.50;;;-2.25;98.22
75460;BME280;64039;53.060;9.342;2022-12-18T12:42:38;102583.50;;;-2.10;97.74
75460;BME280;64039;53.060;9.342;2022-12-18T12:45:31;102568.88;;;-2.29;96.25
75460;BME280;64039;53.060;9.342;2022-12-18T12:48:02;102565.47;;;-2.21;97.06
75460;BME280;64039;53.060;9.342;2022-12-18T12:50:33;102568.47;;;-2.16;97.09
75460;BME280;64039;53.060;9.342;2022-12-18T12:53:01;102559.59;;;-2.28;97.25
75460;BME280;64039;53.060;9.342;2022-12-18T12:55:32;102554.50;;;-2.28;97.70
75460;BME280;64039;53.060;9.342;2022-12-18T13:01:39;102561.09;;;-2.30;98.61
75460;BME280;64039;53.060;9.342;2022-12-18T13:04:23;102563.88;;;-2.45;98.21
75460;BME280;64039;53.060;9.342;2022-12-18T13:09:32;102548.88;;;-2.50;98.52
75460;BME280;64039;53.060;9.342;2022-12-18T13:12:07;102540.41;;;-2.58;98.57
75460;BME280;64039;53.060;9.342;2022-12-18T13:15:12;102538.81;;;-2.49;98.42
75460;BME280;64039;53.060;9.342;2022-12-18T13:20:33;102548.41;;;-2.46;96.91
75460;BME280;64039;53.060;9.342;2022-12-18T13:23:00;102551.28;;;-2.43;97.08
75460;BME280;64039;53.060;9.342;2022-12-18T13:25:34;102553.38;;;-2.48;97.26
75460;BME280;64039;53.060;9.342;2022-12-18T13:28:05;102543.91;;;-2.49;97.94
75460;BME280;64039;53.060;9.342;2022-12-18T13:36:03;102524.03;;;-2.35;99.60
75460;BME280;64039;53.060;9.342;2022-12-18T13:38:35;102522.34;;;-2.44;98.36
75460;BME280;64039;53.060;9.342;2022-12-18T13:43:47;102508.22;;;-2.49;95.29
75460;BME280;64039;53.060;9.342;2022-12-18T13:46:30;102512.41;;;-2.49;95.55
75460;BME280;64039;53.060;9.342;2022-12-18T13:51:42;102508.94;;;-2.50;97.00
75460;BME280;64039;53.060;9.342;2022-12-18T13:56:52;102508.81;;;-2.51;98.18
75460;BME280;64039;53.060;9.342;2022-12-18T13:59:18;102516.47;;;-2.43;97.35
75460;BME280;64039;53.060;9.342;2022-12-18T14:01:56;102525.13;;;-2.58;97.10
75460;BME280;64039;53.060;9.342;2022-12-18T14:04:31;102516.47;;;-2.51;97.09
75460;BME280;64039;53.060;9.342;2022-12-18T14:07:02;102516.94;;;-2.38;96.59
75460;BME280;64039;53.060;9.342;2022-12-18T14:09:30;102509.13;;;-2.48;95.00
75460;BME280;64039;53.060;9.342;2022-12-18T14:11:59;102509.13;;;-2.48;94.73
75460;BME280;64039;53.060;9.342;2022-12-18T14:14:47;102504.91;;;-2.57;95.11
75460;BME280;64039;53.060;9.342;2022-12-18T14:17:14;102490.81;;;-2.53;95.43
75460;BME280;64039;53.060;9.342;2022-12-18T14:19:45;102497.53;;;-2.54;95.81
75460;BME280;64039;53.060;9.342;2022-12-18T14:22:20;102491.09;;;-2.59;95.50
75460;BME280;64039;53.060;9.342;2022-12-18T14:25:18;102484.97;;;-2.52;94.60
75460;BME280;64039;53.060;9.342;2022-12-18T14:27:47;102475.19;;;-2.56;95.68
75460;BME280;64039;53.060;9.342;2022-12-18T14:30:33;102466.19;;;-2.61;95.86
75460;BME280;64039;53.060;9.342;2022-12-18T14:33:23;102471.56;;;-2.67;94.81
75460;BME280;64039;53.060;9.342;2022-12-18T14:35:56;102460.25;;;-2.87;95.45
75460;BME280;64039;53.060;9.342;2022-12-18T14:38:41;102464.75;;;-2.84;96.05